KNKT

Marine Corps Air Station Cherry Point

Airport
ICAO code
KNKT
IATA Code
NKT
Summary
ICAO Region
NAM
ICAO Territory
Location

Havelock, North Carolina,

Serving
Havelock
Elevation
29 ft
Coordinates
34° 54' 12" N , 76° 53' 48" W
KCC
Metar
KNKT 240207Z 20012G24KT 10SM BKN020 27/24 A2987 RMK AO2 T02670239

Description

Marine Corps Air Station Cherry Point or MCAS Cherry Point is a United States Marine Corps airfield located in Havelock, North Carolina.

Climatology

Humid “subtropical” climate (Köppen climate classification Cfa) - characterized by hot, humid summers and cool winters. Significant amounts of precipitation occur in all seasons in most areas. Winter rainfall (and sometimes snowfall) is associated with large storms that the westerlies steer from west to east. Most summer rainfall occurs during thunderstorms and occasional tropical storms (hurricanes).

Runways

Designator Length Width Surface Rops
05L/23R 2302 61 ASP Yes/Yes
05R/23L 2496 60 ASP Yes/Yes
14R/32L 2560 61 ASP Yes/Yes
14L/32R 2738 61 ASP Yes/Yes

Airport map

Aerial View

SKYbrary Partners:

Safety knowledge contributed by: